createdAt,value
2019-03-28T00:01:16.591Z,6.13
2019-03-28T00:03:49.114Z,7.30
2019-03-28T00:06:21.728Z,8.73
2019-03-28T00:08:54.266Z,8.03
2019-03-28T00:11:26.882Z,7.33
2019-03-28T00:13:59.403Z,8.87
2019-03-28T00:16:33.052Z,7.20
2019-03-28T00:19:05.662Z,8.50
2019-03-28T00:21:38.150Z,7.77
2019-03-28T00:24:18.386Z,10.47
2019-03-28T00:26:50.956Z,9.00
2019-03-28T00:29:23.434Z,9.30
2019-03-28T00:31:56.129Z,7.53
2019-03-28T00:34:28.635Z,7.03
2019-03-28T00:37:01.132Z,8.43
2019-03-28T00:39:33.624Z,7.07
2019-03-28T00:42:06.293Z,8.27
2019-03-28T00:44:38.851Z,8.70
2019-03-28T00:47:11.477Z,6.90
2019-03-28T00:49:43.985Z,8.87
2019-03-28T00:52:16.535Z,7.97
2019-03-28T00:54:49.028Z,7.27
2019-03-28T00:57:21.563Z,7.30
2019-03-28T00:59:54.178Z,7.10
2019-03-28T01:02:26.828Z,6.90
2019-03-28T01:04:59.346Z,7.20
2019-03-28T01:07:31.809Z,9.80
2019-03-28T01:10:04.614Z,6.53
2019-03-28T01:12:38.990Z,9.10
2019-03-28T01:15:11.807Z,8.30
2019-03-28T01:17:44.424Z,6.40
2019-03-28T01:20:17.042Z,7.37
2019-03-28T01:22:49.634Z,8.07
2019-03-28T01:25:22.093Z,9.00
2019-03-28T01:27:54.551Z,7.17
2019-03-28T01:30:26.965Z,9.97
2019-03-28T01:32:59.454Z,7.27
2019-03-28T01:35:32.005Z,9.87
2019-03-28T01:38:04.601Z,6.83
2019-03-28T01:40:37.132Z,7.17
2019-03-28T01:43:09.588Z,8.30
2019-03-28T01:45:42.005Z,7.10
2019-03-28T01:48:14.437Z,7.83
2019-03-28T01:50:46.951Z,7.80
2019-03-28T01:53:19.563Z,6.57
2019-03-28T01:55:52.050Z,7.27
2019-03-28T01:58:25.638Z,7.97
2019-03-28T02:00:58.270Z,6.73
2019-03-28T02:03:30.732Z,9.20
2019-03-28T02:06:03.188Z,7.93
2019-03-28T02:08:35.615Z,8.47
2019-03-28T02:11:08.220Z,9.53
2019-03-28T02:13:40.722Z,7.40
2019-03-28T02:16:13.203Z,10.97
2019-03-28T02:18:45.686Z,8.80
2019-03-28T02:21:18.216Z,7.60
2019-03-28T02:23:50.811Z,7.37
2019-03-28T02:26:25.230Z,8.23
2019-03-28T02:28:59.517Z,8.80
2019-03-28T02:31:32.002Z,7.80
2019-03-28T02:34:04.634Z,9.23
2019-03-28T02:36:37.137Z,7.53
2019-03-28T02:39:09.911Z,8.67
2019-03-28T02:41:42.398Z,9.03
2019-03-28T02:44:14.897Z,7.67
2019-03-28T02:46:47.495Z,9.57
2019-03-28T02:49:20.154Z,7.93
2019-03-28T02:51:52.699Z,6.97
2019-03-28T02:54:25.248Z,7.77
2019-03-28T02:56:57.755Z,11.57
2019-03-28T02:59:30.198Z,8.93
2019-03-28T03:02:02.679Z,7.13
2019-03-28T03:04:35.160Z,9.13
2019-03-28T03:07:07.679Z,8.17
2019-03-28T03:09:40.311Z,7.33
2019-03-28T03:12:12.759Z,7.90
2019-03-28T03:14:45.240Z,8.90
2019-03-28T03:17:17.695Z,6.57
2019-03-28T03:19:50.192Z,9.37
2019-03-28T03:22:22.654Z,8.73
2019-03-28T03:24:55.278Z,7.13
2019-03-28T03:27:27.782Z,9.47
2019-03-28T03:30:00.631Z,7.83
2019-03-28T03:32:44.681Z,9.60
2019-03-28T03:35:17.424Z,8.30
2019-03-28T03:37:49.908Z,7.23
2019-03-28T03:40:22.471Z,8.00
2019-03-28T03:42:55.086Z,9.67
2019-03-28T03:45:27.533Z,7.53
2019-03-28T03:48:00.035Z,9.47
2019-03-28T03:50:32.639Z,8.10
2019-03-28T03:53:05.183Z,9.20
2019-03-28T03:55:37.689Z,7.20
2019-03-28T03:58:16.272Z,7.00
2019-03-28T04:00:44.566Z,8.80
2019-03-28T04:03:17.141Z,8.40
2019-03-28T04:05:49.698Z,7.07
2019-03-28T04:08:22.282Z,6.67
2019-03-28T04:10:54.806Z,7.93
2019-03-28T04:13:27.311Z,8.50
2019-03-28T04:15:59.915Z,6.77
2019-03-28T04:18:32.537Z,6.33
2019-03-28T04:21:05.073Z,8.50
2019-03-28T04:23:37.676Z,7.50
2019-03-28T04:26:10.234Z,11.83
2019-03-28T04:28:42.831Z,7.53
2019-03-28T04:31:15.318Z,9.63
2019-03-28T04:33:47.771Z,7.63
2019-03-28T04:36:20.474Z,8.33
2019-03-28T04:38:52.941Z,7.50
2019-03-28T04:41:25.429Z,6.67
2019-03-28T04:43:58.092Z,7.10
2019-03-28T04:46:30.582Z,7.27
2019-03-28T04:49:03.808Z,9.70
2019-03-28T04:51:36.329Z,8.07
2019-03-28T04:54:09.962Z,7.30
2019-03-28T04:56:42.627Z,8.03
2019-03-28T04:59:15.477Z,8.83
2019-03-28T05:01:59.710Z,8.97
2019-03-28T05:04:22.379Z,8.37
2019-03-28T05:06:54.815Z,7.30
2019-03-28T05:09:27.294Z,8.47
2019-03-28T05:11:59.787Z,7.73
2019-03-28T05:14:32.592Z,7.57
2019-03-28T05:17:05.132Z,8.07
2019-03-28T05:19:37.661Z,6.90
2019-03-28T05:22:11.430Z,7.77
2019-03-28T05:24:43.977Z,8.77
2019-03-28T05:27:16.798Z,9.03
2019-03-28T05:29:49.415Z,9.73
2019-03-28T05:32:22.014Z,10.63
2019-03-28T05:34:55.485Z,9.63
2019-03-28T05:37:27.959Z,8.30
2019-03-28T05:40:00.459Z,8.53
2019-03-28T05:42:33.058Z,13.50
2019-03-28T05:45:05.868Z,11.17
2019-03-28T05:47:38.427Z,9.73
2019-03-28T05:50:11.378Z,7.80
2019-03-28T05:52:45.357Z,11.90
2019-03-28T05:55:18.901Z,12.73
2019-03-28T05:57:52.478Z,11.70
2019-03-28T06:00:25.085Z,9.03
2019-03-28T06:03:00.820Z,8.13
2019-03-28T06:05:36.455Z,10.90
2019-03-28T06:08:10.683Z,9.00
2019-03-28T06:10:44.450Z,9.37
2019-03-28T06:13:17.035Z,14.17
2019-03-28T06:15:49.613Z,10.77
2019-03-28T06:18:22.174Z,9.63
2019-03-28T06:20:55.447Z,10.03
2019-03-28T06:23:28.052Z,10.03
2019-03-28T06:26:00.562Z,10.50
2019-03-28T06:28:33.252Z,8.27
2019-03-28T06:31:06.951Z,10.27
2019-03-28T06:33:39.470Z,8.20
2019-03-28T06:36:12.944Z,10.03
2019-03-28T06:38:46.700Z,11.70
2019-03-28T06:41:19.189Z,8.87
2019-03-28T06:43:51.701Z,9.87
2019-03-28T06:46:24.206Z,8.47
2019-03-28T06:48:56.820Z,11.20
2019-03-28T06:51:29.315Z,12.23
2019-03-28T06:54:01.833Z,8.90
2019-03-28T06:56:36.178Z,9.50
2019-03-28T06:59:08.683Z,10.90
2019-03-28T07:01:41.333Z,9.00
2019-03-28T07:04:13.828Z,11.03
2019-03-28T07:06:47.562Z,8.67
2019-03-28T07:09:20.172Z,10.13
2019-03-28T07:11:52.704Z,8.67
2019-03-28T07:14:25.219Z,10.90
2019-03-28T07:16:58.044Z,13.05
2019-03-28T07:19:30.507Z,10.97
2019-03-28T07:22:03.100Z,10.50
2019-03-28T07:24:38.729Z,11.90
2019-03-28T07:27:11.454Z,12.87
2019-03-28T07:29:50.634Z,10.40
2019-03-28T07:32:18.184Z,9.37
2019-03-28T07:34:52.025Z,8.23
2019-03-28T07:37:27.861Z,9.10
2019-03-28T07:39:58.928Z,12.10
2019-03-28T07:42:31.475Z,9.37
2019-03-28T07:45:04.424Z,12.23
2019-03-28T07:47:36.935Z,10.23
2019-03-28T07:50:11.619Z,11.80
2019-03-28T07:52:44.470Z,9.47
2019-03-28T07:55:17.013Z,9.87
2019-03-28T07:57:49.556Z,10.50
2019-03-28T08:00:22.176Z,10.33
2019-03-28T08:02:54.866Z,9.53
2019-03-28T08:05:27.349Z,10.87
2019-03-28T08:08:00.189Z,10.67
2019-03-28T08:10:32.669Z,10.40
2019-03-28T08:13:05.339Z,10.37
2019-03-28T08:15:40.601Z,9.73
2019-03-28T08:18:13.332Z,12.77
2019-03-28T08:20:47.355Z,10.23
2019-03-28T08:23:22.193Z,9.17
2019-03-28T08:25:54.817Z,10.67
2019-03-28T08:28:27.463Z,8.80
2019-03-28T08:30:59.998Z,10.47
2019-03-28T08:33:34.399Z,11.57
2019-03-28T08:36:07.487Z,10.97
2019-03-28T08:38:41.949Z,10.83
2019-03-28T08:41:16.013Z,11.30
2019-03-28T08:43:49.828Z,10.50
2019-03-28T08:46:23.307Z,10.10
2019-03-28T08:48:56.019Z,12.23
2019-03-28T08:51:28.666Z,11.17
2019-03-28T08:54:01.153Z,10.20
2019-03-28T08:56:33.624Z,12.73
2019-03-28T08:59:06.132Z,11.03
2019-03-28T09:01:38.758Z,12.20
2019-03-28T09:04:11.416Z,12.67
2019-03-28T09:06:44.008Z,11.80
2019-03-28T09:09:16.676Z,14.17
2019-03-28T09:11:49.302Z,13.27
2019-03-28T09:14:21.815Z,13.37
2019-03-28T09:16:54.337Z,15.03
2019-03-28T09:19:26.901Z,11.47
2019-03-28T09:21:59.414Z,13.00
2019-03-28T09:24:32.208Z,19.12
2019-03-28T09:27:04.897Z,13.23
2019-03-28T09:29:37.463Z,16.87
2019-03-28T09:32:10.061Z,11.63
2019-03-28T09:34:45.036Z,10.93
2019-03-28T09:37:17.559Z,12.97
2019-03-28T09:39:50.194Z,13.90
2019-03-28T09:42:22.905Z,12.90
2019-03-28T09:44:56.358Z,13.13
2019-03-28T09:47:28.984Z,13.70
2019-03-28T09:50:03.002Z,20.90
2019-03-28T09:52:35.557Z,13.70
2019-03-28T09:55:08.229Z,14.57
2019-03-28T09:57:40.756Z,12.57
2019-03-28T10:00:14.987Z,13.60
2019-03-28T10:02:47.629Z,15.57
2019-03-28T10:05:20.133Z,14.07
2019-03-28T10:07:52.755Z,15.13
2019-03-28T10:10:25.373Z,12.93
2019-03-28T10:12:58.145Z,14.20
2019-03-28T10:15:30.720Z,13.43
2019-03-28T10:18:04.713Z,15.03
2019-03-28T10:20:37.303Z,15.17
2019-03-28T10:23:12.522Z,15.23
2019-03-28T10:25:45.319Z,17.97
2019-03-28T10:28:17.893Z,15.07
2019-03-28T10:30:51.806Z,20.07
2019-03-28T10:33:24.664Z,17.37
2019-03-28T10:36:01.056Z,13.63
2019-03-28T10:38:33.657Z,15.47
2019-03-28T10:41:12.767Z,14.77
2019-03-28T10:43:50.480Z,17.97
2019-03-28T10:46:29.051Z,16.47
2019-03-28T10:49:05.257Z,16.43
2019-03-28T10:51:37.986Z,16.37
2019-03-28T10:54:19.856Z,16.43
2019-03-28T10:56:52.070Z,18.30
2019-03-28T10:59:25.377Z,15.50
2019-03-28T11:01:58.139Z,21.47
2019-03-28T11:04:30.828Z,16.80
2019-03-28T11:07:04.919Z,17.97
2019-03-28T11:09:41.720Z,16.53
2019-03-28T11:12:24.029Z,16.83
2019-03-28T11:14:57.831Z,15.47
2019-03-28T11:17:40.579Z,13.43
2019-03-28T11:22:06.489Z,15.33
2019-03-28T11:23:58.586Z,12.23
2019-03-28T11:26:49.831Z,13.80
2019-03-28T11:29:24.889Z,13.97
2019-03-28T11:31:57.397Z,12.83
2019-03-28T11:34:33.586Z,12.63
2019-03-28T11:37:09.613Z,11.70
2019-03-28T11:40:02.152Z,11.00
2019-03-28T11:42:34.790Z,8.40
2019-03-28T11:45:09.423Z,10.83
2019-03-28T11:47:43.869Z,10.83
2019-03-28T11:50:21.188Z,8.70
2019-03-28T11:52:55.266Z,11.37
2019-03-28T11:55:29.007Z,10.03
2019-03-28T11:58:01.537Z,8.03
2019-03-28T12:00:34.227Z,8.33
2019-03-28T12:03:06.750Z,7.10
2019-03-28T12:05:40.598Z,9.57
2019-03-28T12:08:13.189Z,8.53
2019-03-28T12:10:45.654Z,7.37
2019-03-28T12:13:18.359Z,7.97
2019-03-28T12:15:51.150Z,9.53
2019-03-28T12:18:25.189Z,12.17
2019-03-28T12:20:59.403Z,12.57
2019-03-28T12:23:31.927Z,11.77
2019-03-28T12:26:04.640Z,14.80
2019-03-28T12:28:37.403Z,15.67
2019-03-28T12:31:11.045Z,14.50
2019-03-28T12:33:43.668Z,13.33
2019-03-28T12:36:16.339Z,14.67
2019-03-28T12:38:48.994Z,12.90
2019-03-28T12:41:21.640Z,11.73
2019-03-28T12:43:55.397Z,14.23
2019-03-28T12:46:29.411Z,10.10
2019-03-28T12:49:03.072Z,14.10
2019-03-28T12:51:35.683Z,11.40
2019-03-28T12:54:09.625Z,13.47
2019-03-28T12:56:42.183Z,21.83
2019-03-28T13:01:50.421Z,11.50
2019-03-28T13:04:22.940Z,10.73
2019-03-28T13:06:55.574Z,13.30
2019-03-28T13:09:33.914Z,12.73
2019-03-28T13:13:22.027Z,11.77
2019-03-28T13:15:54.598Z,12.10
2019-03-28T13:18:27.482Z,13.40
2019-03-28T13:21:12.832Z,14.37
2019-03-28T13:23:34.464Z,14.73
2019-03-28T13:26:07.261Z,12.83
2019-03-28T13:28:39.812Z,12.83
2019-03-28T13:31:12.440Z,11.77
2019-03-28T13:33:44.952Z,10.93
2019-03-28T13:36:17.674Z,11.17
2019-03-28T13:38:50.289Z,11.80
2019-03-28T13:41:24.422Z,11.90
2019-03-28T13:43:57.050Z,12.10
2019-03-28T13:46:29.886Z,11.47
2019-03-28T13:49:02.395Z,12.47
2019-03-28T13:51:35.004Z,10.70
2019-03-28T13:54:07.551Z,9.77
2019-03-28T13:56:40.101Z,10.57
2019-03-28T13:59:12.893Z,11.37
2019-03-28T14:01:45.526Z,9.47
2019-03-28T14:04:18.265Z,9.17
2019-03-28T14:06:50.932Z,12.20
2019-03-28T14:09:23.794Z,10.67
2019-03-28T14:11:56.400Z,10.13
2019-03-28T14:14:28.921Z,10.63
2019-03-28T14:17:01.478Z,9.60
2019-03-28T14:19:33.972Z,9.57
2019-03-28T14:22:06.497Z,9.37
2019-03-28T14:24:40.148Z,9.63
2019-03-28T14:27:12.972Z,9.77
2019-03-28T14:29:45.542Z,10.97
2019-03-28T14:32:18.327Z,12.33
2019-03-28T14:34:50.807Z,10.20
2019-03-28T14:37:24.422Z,9.33
2019-03-28T14:39:58.324Z,10.43
2019-03-28T14:42:30.950Z,10.43
2019-03-28T14:45:03.506Z,10.13
2019-03-28T14:47:36.012Z,10.77
2019-03-28T14:50:12.694Z,10.23
2019-03-28T14:52:45.165Z,10.87
2019-03-28T14:55:17.863Z,13.37
2019-03-28T14:57:50.782Z,13.43
2019-03-28T15:00:48.795Z,14.43
2019-03-28T15:03:27.468Z,14.50
2019-03-28T15:05:58.550Z,14.57
2019-03-28T15:08:31.285Z,16.07
2019-03-28T15:11:04.064Z,17.17
2019-03-28T15:13:36.634Z,15.30
2019-03-28T15:16:09.427Z,16.30
2019-03-28T15:18:42.114Z,15.43
2019-03-28T15:21:15.935Z,14.43
2019-03-28T15:23:48.441Z,13.73
2019-03-28T15:26:21.163Z,14.70
2019-03-28T15:28:53.807Z,14.17
2019-03-28T15:31:26.326Z,14.40
2019-03-28T15:33:58.888Z,14.50
2019-03-28T15:36:31.614Z,15.03
2019-03-28T15:39:05.809Z,14.50
2019-03-28T15:41:38.445Z,13.57
2019-03-28T15:44:10.996Z,12.63
2019-03-28T15:46:43.667Z,14.00
2019-03-28T15:49:16.300Z,11.50
2019-03-28T15:51:48.995Z,11.20
2019-03-28T15:54:21.623Z,11.00
2019-03-28T15:56:54.173Z,11.03
2019-03-28T15:59:26.691Z,9.73
2019-03-28T16:02:00.025Z,10.57
2019-03-28T16:04:32.989Z,12.83
2019-03-28T16:07:07.726Z,11.37
2019-03-28T16:09:40.594Z,11.53
2019-03-28T16:12:13.276Z,10.97
2019-03-28T16:14:45.941Z,11.23
2019-03-28T16:17:18.556Z,9.97
2019-03-28T16:19:52.918Z,9.50
2019-03-28T16:22:27.330Z,10.93
2019-03-28T16:25:00.006Z,8.30
2019-03-28T16:27:32.538Z,7.93
2019-03-28T16:30:05.976Z,7.53
2019-03-28T16:32:40.595Z,9.57
2019-03-28T16:35:13.654Z,8.00
2019-03-28T16:37:46.217Z,8.63
2019-03-28T16:40:18.811Z,10.90
2019-03-28T16:42:51.466Z,8.10
2019-03-28T16:45:24.108Z,9.93
2019-03-28T16:47:56.801Z,8.63
2019-03-28T16:50:29.673Z,8.50
2019-03-28T16:53:02.285Z,8.33
2019-03-28T16:55:34.950Z,8.03
2019-03-28T16:58:08.893Z,8.97
2019-03-28T17:00:42.167Z,10.20
2019-03-28T17:03:14.733Z,8.67
2019-03-28T17:05:47.390Z,9.87
2019-03-28T17:08:20.709Z,8.80
2019-03-28T17:10:55.559Z,8.27
2019-03-28T17:13:28.096Z,8.43
2019-03-28T17:16:00.735Z,9.23
2019-03-28T17:18:33.336Z,8.30
2019-03-28T17:21:07.184Z,9.60
2019-03-28T17:23:39.723Z,8.90
2019-03-28T17:26:12.447Z,7.97
2019-03-28T17:28:45.237Z,8.60
2019-03-28T17:31:18.891Z,9.23
2019-03-28T17:33:51.645Z,8.70
2019-03-28T17:36:26.972Z,8.53
2019-03-28T17:39:01.509Z,8.97
2019-03-28T17:41:34.108Z,8.80
2019-03-28T17:44:07.859Z,9.17
2019-03-28T17:46:41.790Z,9.33
2019-03-28T17:49:15.624Z,9.83
2019-03-28T17:51:48.246Z,10.60
2019-03-28T17:54:21.834Z,10.57
2019-03-28T17:56:54.396Z,10.60
2019-03-28T17:59:27.114Z,10.20
2019-03-28T18:01:59.692Z,9.83
2019-03-28T18:04:32.648Z,9.47
2019-03-28T18:07:05.320Z,11.77
2019-03-28T18:09:39.038Z,9.53
2019-03-28T18:12:13.755Z,10.27
2019-03-28T18:14:46.532Z,9.10
2019-03-28T18:17:19.238Z,9.20
2019-03-28T18:19:51.939Z,9.13
2019-03-28T18:22:24.490Z,9.43
2019-03-28T18:24:57.393Z,9.37
2019-03-28T18:27:30.058Z,8.50
2019-03-28T18:30:05.299Z,8.40
2019-03-28T18:32:39.402Z,9.40
2019-03-28T18:35:12.195Z,19.57
2019-03-28T18:37:45.007Z,11.23
2019-03-28T18:40:18.618Z,11.33
2019-03-28T18:42:52.959Z,10.53
2019-03-28T18:45:25.904Z,10.83
2019-03-28T18:47:58.604Z,14.80
2019-03-28T18:50:32.329Z,18.77
2019-03-28T18:53:05.098Z,20.57
2019-03-28T18:55:37.795Z,19.43
2019-03-28T18:58:10.381Z,17.77
2019-03-28T19:00:43.246Z,18.43
2019-03-28T19:03:15.884Z,20.60
2019-03-28T19:05:48.880Z,20.67
2019-03-28T19:08:21.819Z,21.90
2019-03-28T19:10:54.410Z,20.97
2019-03-28T19:13:28.499Z,21.00
2019-03-28T19:16:01.258Z,22.10
2019-03-28T19:18:33.913Z,21.97
2019-03-28T19:21:06.710Z,21.93
2019-03-28T19:23:39.373Z,23.83
2019-03-28T19:26:11.959Z,28.43
2019-03-28T19:28:44.529Z,26.77
2019-03-28T19:31:17.213Z,24.53
2019-03-28T19:33:50.832Z,22.47
2019-03-28T19:36:24.085Z,23.50
2019-03-28T19:38:57.109Z,22.73
2019-03-28T19:41:29.787Z,19.93
2019-03-28T19:44:03.198Z,21.73
2019-03-28T19:46:36.909Z,20.33
2019-03-28T19:49:09.518Z,21.73
2019-03-28T19:51:42.419Z,20.87
2019-03-28T19:54:16.201Z,19.70
2019-03-28T19:56:49.009Z,21.60
2019-03-28T19:59:21.644Z,20.33
2019-03-28T20:01:54.153Z,21.23
2019-03-28T20:04:26.960Z,20.20
2019-03-28T20:06:59.692Z,21.67
2019-03-28T20:09:32.474Z,21.07
2019-03-28T20:12:05.921Z,20.60
2019-03-28T20:14:38.675Z,23.60
2019-03-28T20:17:11.570Z,36.73
2019-03-28T20:19:44.232Z,24.47
2019-03-28T20:22:16.912Z,22.73
2019-03-28T20:24:51.327Z,22.27
2019-03-28T20:27:23.923Z,23.43
2019-03-28T20:29:56.511Z,22.70
2019-03-28T20:32:30.293Z,23.67
2019-03-28T20:35:03.043Z,21.90
2019-03-28T20:37:37.953Z,22.30
2019-03-28T20:40:11.443Z,22.83
2019-03-28T20:42:44.188Z,21.83
2019-03-28T20:45:17.513Z,20.03
2019-03-28T20:47:50.891Z,20.97
2019-03-28T20:50:25.414Z,20.30
2019-03-28T20:52:58.087Z,22.40
2019-03-28T20:55:30.778Z,23.77
2019-03-28T20:58:03.592Z,23.97
2019-03-28T21:00:43.257Z,26.07
2019-03-28T21:03:16.193Z,22.70
2019-03-28T21:05:49.943Z,24.27
2019-03-28T21:08:22.686Z,24.13
2019-03-28T21:10:57.110Z,22.00
2019-03-28T21:13:30.145Z,24.50
2019-03-28T21:16:04.112Z,21.60
2019-03-28T21:18:36.754Z,23.10
2019-03-28T21:21:09.424Z,23.87
2019-03-28T21:23:42.025Z,32.50
2019-03-28T21:26:15.111Z,24.13
2019-03-28T21:28:48.041Z,22.97
2019-03-28T21:31:20.618Z,24.27
2019-03-28T21:33:55.045Z,24.00
2019-03-28T21:36:30.155Z,24.70
2019-03-28T21:39:04.757Z,23.80
2019-03-28T21:41:38.711Z,25.43
2019-03-28T21:44:12.522Z,23.83
2019-03-28T21:46:45.150Z,22.47
2019-03-28T21:49:17.984Z,21.30
2019-03-28T21:51:50.474Z,23.83
2019-03-28T21:54:23.071Z,23.57
2019-03-28T21:56:55.808Z,25.97
2019-03-28T21:59:28.321Z,22.17
2019-03-28T22:02:00.952Z,24.30
2019-03-28T22:04:33.521Z,22.90
2019-03-28T22:07:06.233Z,24.57
2019-03-28T22:09:39.937Z,23.13
2019-03-28T22:12:12.800Z,22.10
2019-03-28T22:14:48.163Z,23.40
2019-03-28T22:17:20.714Z,22.70
2019-03-28T22:19:53.343Z,23.70
2019-03-28T22:22:26.043Z,23.97
2019-03-28T22:24:58.602Z,23.13
2019-03-28T22:27:31.244Z,25.03
2019-03-28T22:30:03.962Z,23.93
2019-03-28T22:32:36.634Z,25.53
2019-03-28T22:35:09.556Z,23.67
2019-03-28T22:37:43.268Z,25.47
2019-03-28T22:40:16.431Z,22.10
2019-03-28T22:42:48.969Z,22.03
2019-03-28T22:45:21.506Z,24.17
2019-03-28T22:47:54.293Z,23.17
2019-03-28T22:50:26.988Z,21.57
2019-03-28T22:52:59.570Z,21.47
2019-03-28T22:55:32.251Z,23.43
2019-03-28T22:58:05.270Z,22.00
2019-03-28T23:00:45.166Z,25.10
2019-03-28T23:03:19.172Z,23.60
2019-03-28T23:05:51.805Z,23.73
2019-03-28T23:08:24.341Z,21.50
2019-03-28T23:10:56.897Z,20.93
2019-03-28T23:13:32.200Z,21.37
2019-03-28T23:16:04.825Z,23.97
2019-03-28T23:18:37.331Z,21.67
2019-03-28T23:21:09.917Z,23.90
2019-03-28T23:23:42.438Z,20.93
2019-03-28T23:26:16.782Z,21.77
2019-03-28T23:28:49.460Z,22.57
2019-03-28T23:31:22.004Z,21.10
2019-03-28T23:33:54.646Z,22.70
2019-03-28T23:36:27.251Z,22.90
2019-03-28T23:38:59.891Z,22.30
2019-03-28T23:41:32.493Z,21.37
2019-03-28T23:44:05.022Z,21.90
2019-03-28T23:46:37.896Z,21.47
2019-03-28T23:49:10.495Z,21.77
2019-03-28T23:51:43.194Z,20.13
2019-03-28T23:54:15.922Z,22.40
2019-03-28T23:56:48.538Z,25.00
2019-03-28T23:59:21.186Z,22.93
